createdAt,value
2022-08-20T00:02:12.577Z,5.20
2022-08-20T00:04:41.161Z,4.33
2022-08-20T00:07:08.674Z,3.80
2022-08-20T00:09:36.489Z,5.10
2022-08-20T00:12:05.438Z,3.70
2022-08-20T00:14:35.018Z,3.53
2022-08-20T00:17:03.009Z,3.57
2022-08-20T00:19:30.509Z,4.57
2022-08-20T00:21:58.591Z,3.50
2022-08-20T00:24:26.635Z,3.40
2022-08-20T00:26:54.129Z,2.90
2022-08-20T00:29:22.341Z,3.80
2022-08-20T00:31:51.827Z,4.27
2022-08-20T00:34:19.677Z,2.80
2022-08-20T00:36:47.179Z,3.10
2022-08-20T00:39:14.848Z,2.87
2022-08-20T00:41:42.433Z,3.60
2022-08-20T00:44:12.924Z,2.50
2022-08-20T00:46:42.081Z,3.77
2022-08-20T00:49:17.394Z,2.80
2022-08-20T00:51:48.815Z,3.43
2022-08-20T00:54:19.781Z,3.70
2022-08-20T00:56:51.754Z,3.10
2022-08-20T00:59:24.045Z,4.30
2022-08-20T01:01:55.484Z,4.63
2022-08-20T01:04:26.581Z,4.10
2022-08-20T01:06:54.761Z,5.67
2022-08-20T01:09:49.858Z,4.07
2022-08-20T01:12:10.762Z,5.87
2022-08-20T01:14:43.810Z,3.00
2022-08-20T01:17:15.926Z,2.97
2022-08-20T01:19:49.881Z,3.23
2022-08-20T01:22:55.067Z,5.73
2022-08-20T01:25:29.789Z,3.10
2022-08-20T01:28:00.138Z,4.37
2022-08-20T01:30:29.798Z,7.40
2022-08-20T01:32:57.608Z,4.20
2022-08-20T01:35:27.027Z,3.03
2022-08-20T01:37:54.903Z,2.60
2022-08-20T01:40:34.260Z,2.70
2022-08-20T01:43:09.141Z,2.80
2022-08-20T01:45:40.062Z,2.50
2022-08-20T01:48:07.976Z,3.37
2022-08-20T01:50:39.872Z,3.10
2022-08-20T01:53:15.789Z,3.07
2022-08-20T01:55:44.067Z,3.40
2022-08-20T01:58:13.690Z,3.57
2022-08-20T02:00:41.200Z,3.23
2022-08-20T02:03:08.681Z,3.70
2022-08-20T02:05:36.539Z,2.80
2022-08-20T02:08:05.843Z,2.93
2022-08-20T02:10:33.791Z,3.67
2022-08-20T02:13:02.603Z,4.13
2022-08-20T02:15:37.148Z,4.10
2022-08-20T02:18:10.168Z,2.90
2022-08-20T02:20:38.713Z,3.20
2022-08-20T02:23:07.716Z,2.73
2022-08-20T02:25:38.672Z,4.03
2022-08-20T02:28:09.177Z,5.80
2022-08-20T02:30:41.452Z,3.87
2022-08-20T02:33:12.101Z,3.43
2022-08-20T02:35:40.999Z,3.10
2022-08-20T02:38:08.525Z,3.40
2022-08-20T02:40:36.112Z,3.07
2022-08-20T02:43:04.967Z,6.67
2022-08-20T02:45:37.270Z,4.17
2022-08-20T02:48:06.865Z,4.30
2022-08-20T02:50:34.429Z,3.30
2022-08-20T02:53:01.997Z,3.33
2022-08-20T02:55:29.456Z,4.20
2022-08-20T02:57:59.076Z,4.70
2022-08-20T03:00:30.504Z,5.23
2022-08-20T03:03:08.321Z,3.50
2022-08-20T03:05:36.998Z,4.43
2022-08-20T03:08:08.288Z,3.60
2022-08-20T03:10:37.765Z,3.30
2022-08-20T03:13:07.083Z,4.73
2022-08-20T03:15:35.485Z,3.53
2022-08-20T03:18:03.425Z,3.17
2022-08-20T03:20:32.659Z,6.33
2022-08-20T03:23:00.919Z,3.87
2022-08-20T03:25:29.008Z,2.93
2022-08-20T03:27:57.245Z,3.47
2022-08-20T03:30:27.684Z,3.80
2022-08-20T03:32:55.787Z,4.37
2022-08-20T03:35:26.066Z,2.97
2022-08-20T03:37:55.535Z,4.33
2022-08-20T03:40:26.796Z,4.40
2022-08-20T03:42:54.484Z,5.10
2022-08-20T03:45:22.979Z,4.40
2022-08-20T03:47:53.230Z,4.37
2022-08-20T03:50:23.685Z,4.20
2022-08-20T03:52:52.843Z,4.63
2022-08-20T03:55:23.200Z,3.53
2022-08-20T03:57:53.483Z,5.90
2022-08-20T04:00:23.975Z,4.73
2022-08-20T04:02:51.459Z,5.00
2022-08-20T04:05:19.278Z,4.27
2022-08-20T04:07:46.790Z,3.80
2022-08-20T04:10:14.337Z,5.07
2022-08-20T04:12:52.706Z,5.53
2022-08-20T04:15:22.181Z,8.13
2022-08-20T04:17:51.077Z,8.30
2022-08-20T04:20:23.081Z,7.20
2022-08-20T04:22:58.973Z,9.90
2022-08-20T04:25:28.987Z,9.47
2022-08-20T04:27:59.572Z,11.43
2022-08-20T04:30:28.346Z,10.37
2022-08-20T04:32:56.994Z,11.83
2022-08-20T04:35:25.475Z,14.80
2022-08-20T04:37:59.361Z,10.53
2022-08-20T04:40:44.357Z,13.80
2022-08-20T04:43:13.187Z,13.30
2022-08-20T04:45:41.307Z,10.50
2022-08-20T04:48:14.232Z,11.90
2022-08-20T04:50:46.860Z,11.53
2022-08-20T04:53:18.596Z,10.70
2022-08-20T04:55:48.394Z,10.73
2022-08-20T04:58:19.724Z,10.47
2022-08-20T05:00:52.457Z,12.47
2022-08-20T05:03:20.466Z,9.80
2022-08-20T05:05:49.141Z,10.80
2022-08-20T05:08:19.673Z,11.60
2022-08-20T05:10:48.493Z,11.97
2022-08-20T05:13:17.586Z,9.83
2022-08-20T05:15:46.592Z,8.73
2022-08-20T05:18:14.503Z,7.83
2022-08-20T05:20:43.086Z,8.10
2022-08-20T05:23:13.553Z,9.60
2022-08-20T05:25:43.298Z,11.70
2022-08-20T05:28:13.698Z,9.43
2022-08-20T05:30:45.297Z,10.23
2022-08-20T05:33:18.965Z,6.63
2022-08-20T05:35:47.728Z,9.07
2022-08-20T05:38:18.962Z,11.70
2022-08-20T05:40:47.792Z,9.10
2022-08-20T05:43:15.677Z,11.80
2022-08-20T05:45:45.596Z,14.47
2022-08-20T05:48:15.278Z,11.10
2022-08-20T05:50:45.248Z,10.90
2022-08-20T05:53:13.453Z,10.67
2022-08-20T05:55:41.039Z,10.60
2022-08-20T05:58:15.275Z,9.70
2022-08-20T06:00:44.145Z,9.40
2022-08-20T06:03:29.382Z,9.47
2022-08-20T06:05:57.137Z,14.40
2022-08-20T06:08:24.873Z,14.70
2022-08-20T06:10:52.394Z,14.33
2022-08-20T06:13:20.262Z,13.93
2022-08-20T06:15:49.143Z,15.23
2022-08-20T06:18:27.591Z,12.13
2022-08-20T06:20:55.977Z,13.70
2022-08-20T06:23:25.173Z,11.67
2022-08-20T06:25:52.800Z,13.00
2022-08-20T06:28:20.596Z,7.63
2022-08-20T06:30:49.409Z,7.80
2022-08-20T06:33:16.920Z,10.40
2022-08-20T06:35:44.605Z,11.00
2022-08-20T06:38:14.637Z,10.47
2022-08-20T06:40:42.461Z,9.10
2022-08-20T06:43:09.952Z,8.83
2022-08-20T06:45:39.736Z,10.47
2022-08-20T06:48:11.077Z,7.77
2022-08-20T06:50:47.479Z,7.97
2022-08-20T06:53:17.794Z,12.30
2022-08-20T06:55:48.579Z,9.17
2022-08-20T06:58:35.749Z,10.40
2022-08-20T07:01:08.675Z,10.77
2022-08-20T07:03:39.107Z,8.90
2022-08-20T07:06:07.886Z,9.93
2022-08-20T07:08:36.293Z,10.80
2022-08-20T07:11:04.211Z,12.77
2022-08-20T07:13:31.687Z,11.83
2022-08-20T07:15:59.239Z,9.80
2022-08-20T07:18:28.245Z,10.17
2022-08-20T07:20:58.619Z,13.03
2022-08-20T07:23:26.882Z,12.60
2022-08-20T07:25:55.544Z,9.43
2022-08-20T07:28:25.744Z,12.50
2022-08-20T07:31:13.487Z,10.53
2022-08-20T07:33:44.559Z,11.10
2022-08-20T07:36:14.036Z,9.47
2022-08-20T07:38:41.753Z,10.80
2022-08-20T07:41:14.847Z,12.93
2022-08-20T07:43:45.407Z,9.43
2022-08-20T07:46:14.505Z,15.10
2022-08-20T07:48:46.168Z,11.97
2022-08-20T07:51:17.031Z,8.70
2022-08-20T07:53:46.357Z,10.47
2022-08-20T07:56:17.387Z,10.03
2022-08-20T07:58:52.947Z,10.50
2022-08-20T08:01:25.442Z,10.67
2022-08-20T08:03:53.246Z,12.30
2022-08-20T08:06:30.549Z,9.50
2022-08-20T08:09:02.833Z,11.40
2022-08-20T08:11:30.754Z,11.30
2022-08-20T08:14:00.542Z,8.50
2022-08-20T08:16:31.068Z,9.90
2022-08-20T08:19:01.913Z,8.70
2022-08-20T08:21:31.875Z,9.33
2022-08-20T08:23:59.816Z,8.43
2022-08-20T08:26:28.756Z,13.97
2022-08-20T08:28:56.672Z,11.47
2022-08-20T08:31:25.582Z,8.03
2022-08-20T08:33:53.047Z,11.07
2022-08-20T08:36:20.533Z,9.97
2022-08-20T08:38:49.351Z,9.50
2022-08-20T08:41:19.593Z,10.93
2022-08-20T08:43:49.457Z,11.70
2022-08-20T08:46:22.424Z,9.77
2022-08-20T08:48:54.892Z,13.43
2022-08-20T08:51:29.236Z,9.73
2022-08-20T08:54:01.144Z,9.47
2022-08-20T08:56:33.015Z,6.97
2022-08-20T08:59:05.104Z,8.00
2022-08-20T09:01:54.504Z,9.10
2022-08-20T09:04:24.661Z,9.93
2022-08-20T09:06:54.321Z,8.90
2022-08-20T09:09:27.387Z,7.07
2022-08-20T09:11:58.854Z,9.37
2022-08-20T09:14:26.364Z,11.70
2022-08-20T09:16:53.843Z,7.87
2022-08-20T09:19:21.420Z,6.23
2022-08-20T09:21:49.124Z,8.70
2022-08-20T09:24:16.810Z,9.10
2022-08-20T09:26:45.938Z,9.30
2022-08-20T09:29:13.749Z,9.67
2022-08-20T09:31:42.613Z,6.40
2022-08-20T09:34:10.371Z,8.67
2022-08-20T09:36:38.080Z,9.90
2022-08-20T09:39:05.561Z,7.63
2022-08-20T09:41:34.305Z,8.20
2022-08-20T09:44:03.683Z,9.50
2022-08-20T09:46:31.195Z,10.63
2022-08-20T09:48:58.660Z,6.73
2022-08-20T09:51:26.226Z,6.90
2022-08-20T09:53:53.913Z,9.13
2022-08-20T09:56:21.524Z,7.40
2022-08-20T09:58:52.064Z,7.97
2022-08-20T10:01:23.333Z,11.50
2022-08-20T10:03:51.353Z,8.00
2022-08-20T10:06:20.845Z,7.67
2022-08-20T10:08:49.195Z,5.67
2022-08-20T10:11:17.888Z,7.80
2022-08-20T10:13:45.655Z,9.57
2022-08-20T10:16:13.280Z,7.73
2022-08-20T10:18:42.268Z,6.07
2022-08-20T10:21:10.949Z,9.23
2022-08-20T10:23:38.714Z,6.87
2022-08-20T10:26:07.722Z,7.57
2022-08-20T10:28:35.272Z,17.63
2022-08-20T10:31:04.541Z,9.67
2022-08-20T10:33:32.188Z,9.23
2022-08-20T10:36:07.425Z,6.60
2022-08-20T10:38:34.920Z,9.37
2022-08-20T10:41:02.589Z,10.10
2022-08-20T10:43:30.449Z,6.70
2022-08-20T10:45:58.287Z,8.30
2022-08-20T10:48:26.063Z,11.40
2022-08-20T10:50:53.556Z,10.17
2022-08-20T10:53:22.487Z,19.53
2022-08-20T10:55:50.029Z,10.53
2022-08-20T10:58:17.517Z,8.10
2022-08-20T11:00:47.823Z,6.23
2022-08-20T11:03:15.448Z,11.10
2022-08-20T11:05:43.001Z,7.37
2022-08-20T11:08:10.484Z,6.90
2022-08-20T11:10:40.250Z,6.60
2022-08-20T11:13:09.216Z,5.97
2022-08-20T11:15:39.157Z,7.00
2022-08-20T11:18:07.055Z,5.00
2022-08-20T11:20:34.862Z,7.20
2022-08-20T11:23:03.118Z,6.20
2022-08-20T11:25:30.966Z,8.00
2022-08-20T11:27:59.997Z,6.40
2022-08-20T11:30:30.146Z,4.73
2022-08-20T11:32:59.098Z,5.93
2022-08-20T11:35:49.052Z,5.87
2022-08-20T11:38:15.394Z,4.90
2022-08-20T11:40:42.907Z,6.77
2022-08-20T11:43:16.302Z,4.50
2022-08-20T11:45:45.081Z,7.83
2022-08-20T11:48:12.748Z,7.20
2022-08-20T11:50:40.259Z,7.67
2022-08-20T11:53:07.941Z,8.90
2022-08-20T11:55:35.635Z,5.40
2022-08-20T11:58:03.525Z,10.53
2022-08-20T12:00:34.304Z,5.60
2022-08-20T12:03:04.734Z,8.53
2022-08-20T12:05:32.573Z,5.50
2022-08-20T12:08:02.433Z,6.00
2022-08-20T12:10:30.038Z,6.10
2022-08-20T12:12:58.049Z,4.93
2022-08-20T12:15:26.718Z,4.70
2022-08-20T12:17:56.324Z,4.43
2022-08-20T12:20:25.347Z,4.30
2022-08-20T12:22:53.871Z,5.23
2022-08-20T12:25:21.548Z,4.83
2022-08-20T12:27:49.025Z,4.90
2022-08-20T12:30:19.789Z,4.77
2022-08-20T12:32:47.993Z,5.60
2022-08-20T12:35:18.695Z,4.60
2022-08-20T12:37:47.214Z,4.97
2022-08-20T12:40:21.452Z,5.27
2022-08-20T12:43:00.453Z,6.90
2022-08-20T12:45:27.983Z,5.00
2022-08-20T12:48:02.210Z,6.17
2022-08-20T12:50:32.119Z,3.90
2022-08-20T12:53:00.380Z,3.50
2022-08-20T12:55:28.587Z,4.40
2022-08-20T12:58:00.255Z,5.50
2022-08-20T13:00:30.253Z,5.13
2022-08-20T13:03:01.837Z,9.03
2022-08-20T13:05:33.179Z,7.10
2022-08-20T13:08:01.171Z,4.90
2022-08-20T13:10:32.731Z,4.00
2022-08-20T13:13:02.029Z,5.37
2022-08-20T13:15:30.529Z,4.40
2022-08-20T13:18:02.536Z,5.33
2022-08-20T13:20:34.504Z,3.70
2022-08-20T13:23:03.156Z,4.73
2022-08-20T13:25:31.323Z,3.87
2022-08-20T13:28:03.812Z,4.17
2022-08-20T13:30:31.944Z,4.97
2022-08-20T13:32:59.449Z,5.00
2022-08-20T13:35:27.191Z,4.20
2022-08-20T13:37:56.013Z,5.67
2022-08-20T13:40:23.684Z,5.13
2022-08-20T13:42:51.208Z,3.83
2022-08-20T13:45:19.173Z,4.00
2022-08-20T13:47:47.152Z,3.77
2022-08-20T13:50:17.527Z,4.10
2022-08-20T13:52:45.982Z,4.13
2022-08-20T13:55:18.667Z,2.73
2022-08-20T13:57:47.042Z,2.80
2022-08-20T14:00:18.777Z,3.10
2022-08-20T14:02:46.653Z,3.27
2022-08-20T14:05:19.007Z,5.73
2022-08-20T14:07:48.845Z,4.23
2022-08-20T14:10:20.589Z,3.50
2022-08-20T14:12:48.379Z,3.30
2022-08-20T14:15:16.440Z,3.07
2022-08-20T14:17:50.325Z,3.90
2022-08-20T14:20:21.286Z,3.40
2022-08-20T14:22:48.912Z,4.23
2022-08-20T14:25:20.446Z,3.60
2022-08-20T14:27:48.295Z,3.20
2022-08-20T14:30:18.964Z,3.67
2022-08-20T14:32:46.474Z,4.07
2022-08-20T14:35:14.335Z,4.93
2022-08-20T14:37:44.097Z,3.30
2022-08-20T14:40:14.238Z,3.40
2022-08-20T14:42:43.575Z,3.87
2022-08-20T14:45:15.589Z,6.03
2022-08-20T14:47:45.675Z,4.30
2022-08-20T14:50:17.163Z,4.40
2022-08-20T14:52:45.609Z,8.40
2022-08-20T14:55:15.403Z,3.87
2022-08-20T14:57:45.037Z,4.40
2022-08-20T15:00:17.773Z,5.70
2022-08-20T15:02:46.817Z,3.10
2022-08-20T15:05:15.273Z,6.87
2022-08-20T15:07:46.125Z,4.23
2022-08-20T15:10:19.065Z,4.37
2022-08-20T15:12:48.004Z,3.47
2022-08-20T15:15:17.621Z,4.90
2022-08-20T15:17:47.567Z,5.10
2022-08-20T15:20:20.387Z,5.00
2022-08-20T15:22:49.388Z,2.83
2022-08-20T15:25:19.619Z,3.27
2022-08-20T15:27:48.752Z,4.50
2022-08-20T15:30:19.909Z,3.57
2022-08-20T15:32:52.695Z,4.77
2022-08-20T15:35:22.659Z,3.47
2022-08-20T15:37:51.285Z,4.87
2022-08-20T15:40:27.872Z,3.60
2022-08-20T15:42:57.781Z,3.40
2022-08-20T15:45:26.141Z,5.00
2022-08-20T15:48:00.124Z,5.83
2022-08-20T15:50:55.179Z,5.47
2022-08-20T15:53:28.693Z,3.00
2022-08-20T15:56:04.492Z,4.40
2022-08-20T15:58:40.513Z,4.47
2022-08-20T16:01:24.466Z,4.57
2022-08-20T16:04:18.596Z,3.47
2022-08-20T16:06:51.127Z,7.10
2022-08-20T16:09:38.869Z,2.53
2022-08-20T16:12:10.115Z,2.67
2022-08-20T16:14:41.678Z,3.60
2022-08-20T16:17:14.305Z,3.10
2022-08-20T16:19:51.492Z,3.37
2022-08-20T16:22:20.750Z,2.60
2022-08-20T16:24:48.772Z,3.37
2022-08-20T16:27:27.593Z,2.80
2022-08-20T16:30:02.562Z,5.50
2022-08-20T16:32:38.517Z,4.97
2022-08-20T16:35:20.529Z,5.40
2022-08-20T16:37:56.931Z,3.23
2022-08-20T16:40:28.550Z,2.43
2022-08-20T16:42:59.963Z,2.70
2022-08-20T16:45:32.296Z,3.83
2022-08-20T16:48:02.863Z,7.30
2022-08-20T16:50:34.512Z,4.17
2022-08-20T16:53:02.304Z,5.20
2022-08-20T16:55:30.491Z,3.67
2022-08-20T16:57:58.327Z,2.97
2022-08-20T17:00:29.384Z,3.10
2022-08-20T17:03:00.634Z,2.70
2022-08-20T17:05:30.548Z,4.77
2022-08-20T17:08:03.376Z,3.60
2022-08-20T17:10:34.256Z,2.80
2022-08-20T17:13:06.448Z,3.23
2022-08-20T17:15:35.951Z,2.70
2022-08-20T17:18:22.998Z,2.90
2022-08-20T17:20:50.624Z,3.57
2022-08-20T17:23:20.066Z,4.77
2022-08-20T17:25:57.685Z,6.17
2022-08-20T17:28:25.889Z,2.63
2022-08-20T17:30:55.918Z,4.63
2022-08-20T17:33:29.676Z,7.47
2022-08-20T17:35:59.308Z,9.00
2022-08-20T17:38:35.435Z,3.90
2022-08-20T17:41:08.395Z,3.20
2022-08-20T17:43:36.317Z,5.40
2022-08-20T17:46:16.223Z,4.70
2022-08-20T17:48:47.137Z,4.80
2022-08-20T17:51:17.627Z,4.67
2022-08-20T17:53:50.966Z,3.43
2022-08-20T17:56:21.905Z,11.13
2022-08-20T17:58:54.216Z,4.93
2022-08-20T18:01:23.688Z,4.50
2022-08-20T18:03:54.265Z,4.57
2022-08-20T18:06:31.027Z,4.53
2022-08-20T18:09:05.015Z,4.90
2022-08-20T18:11:38.016Z,6.50
2022-08-20T18:14:39.353Z,4.60
2022-08-20T18:17:16.232Z,4.40
2022-08-20T18:20:06.281Z,3.87
2022-08-20T18:22:46.755Z,3.67
2022-08-20T18:25:25.072Z,3.10
2022-08-20T18:27:56.279Z,3.80
2022-08-20T18:30:25.611Z,7.13
2022-08-20T18:33:04.225Z,8.03
2022-08-20T18:35:45.782Z,2.63
2022-08-20T18:38:26.921Z,3.43
2022-08-20T18:40:55.295Z,4.03
2022-08-20T18:43:30.269Z,5.97
2022-08-20T18:46:09.054Z,10.37
2022-08-20T18:48:36.620Z,5.60
2022-08-20T18:51:11.495Z,4.40
2022-08-20T18:53:38.970Z,21.57
2022-08-20T18:56:08.812Z,9.97
2022-08-20T18:58:50.849Z,7.97
2022-08-20T19:01:20.321Z,9.83
2022-08-20T19:03:50.347Z,6.20
2022-08-20T19:06:29.684Z,10.43
2022-08-20T19:09:03.385Z,6.77
2022-08-20T19:11:52.492Z,2.40
2022-08-20T19:14:49.409Z,1.90
2022-08-20T19:17:21.414Z,15.50
2022-08-20T19:19:59.435Z,5.10
2022-08-20T19:22:28.925Z,2.67
2022-08-20T19:24:58.621Z,2.10
2022-08-20T19:27:26.756Z,2.70
2022-08-20T19:29:56.905Z,3.93
2022-08-20T19:32:26.895Z,11.23
2022-08-20T19:34:57.201Z,4.33
2022-08-20T19:37:40.043Z,2.83
2022-08-20T19:40:28.166Z,2.60
2022-08-20T19:42:57.379Z,3.00
2022-08-20T19:45:30.494Z,2.70
2022-08-20T19:48:27.503Z,7.10
2022-08-20T19:51:05.156Z,5.10
2022-08-20T19:53:35.747Z,7.60
2022-08-20T19:56:06.113Z,5.20
2022-08-20T19:58:35.001Z,5.83
2022-08-20T20:01:05.330Z,4.83
2022-08-20T20:03:37.593Z,7.80
2022-08-20T20:06:17.181Z,2.13
2022-08-20T20:08:52.813Z,3.73
2022-08-20T20:11:33.709Z,1.60
2022-08-20T20:14:03.381Z,3.37
2022-08-20T20:16:32.521Z,3.27
2022-08-20T20:19:24.835Z,2.93
2022-08-20T20:21:51.010Z,5.13
2022-08-20T20:24:26.335Z,7.60
2022-08-20T20:26:54.109Z,3.23
2022-08-20T20:29:26.293Z,3.20
2022-08-20T20:31:55.610Z,2.90
2022-08-20T20:34:27.264Z,2.63
2022-08-20T20:37:13.301Z,2.70
2022-08-20T20:39:45.513Z,4.17
2022-08-20T20:42:26.113Z,1.93
2022-08-20T20:44:54.291Z,3.20
2022-08-20T20:47:25.163Z,8.60
2022-08-20T20:49:55.218Z,4.20
2022-08-20T20:52:28.305Z,1.80
2022-08-20T20:55:10.270Z,2.43
2022-08-20T20:57:39.098Z,3.43
2022-08-20T21:00:11.338Z,4.07
2022-08-20T21:02:39.013Z,7.10
2022-08-20T21:05:07.134Z,2.80
2022-08-20T21:07:34.677Z,4.33
2022-08-20T21:10:02.161Z,1.70
2022-08-20T21:12:30.942Z,3.20
2022-08-20T21:14:58.475Z,4.43
2022-08-20T21:17:27.362Z,4.10
2022-08-20T21:19:54.946Z,4.37
2022-08-20T21:22:22.678Z,3.47
2022-08-20T21:24:51.360Z,2.60
2022-08-20T21:27:21.520Z,5.37
2022-08-20T21:29:50.360Z,3.50
2022-08-20T21:32:18.820Z,5.90
2022-08-20T21:34:46.785Z,6.00
2022-08-20T21:37:14.544Z,2.80
2022-08-20T21:39:42.095Z,2.13
2022-08-20T21:42:22.938Z,3.20
2022-08-20T21:44:58.644Z,1.70
2022-08-20T21:47:27.320Z,2.87
2022-08-20T21:49:55.282Z,3.13
2022-08-20T21:52:23.013Z,2.50
2022-08-20T21:54:50.498Z,2.20
2022-08-20T21:57:20.769Z,3.63
2022-08-20T21:59:49.861Z,3.10
2022-08-20T22:02:19.833Z,3.50
2022-08-20T22:04:47.342Z,2.10
2022-08-20T22:07:16.353Z,1.40
2022-08-20T22:09:44.034Z,2.30
2022-08-20T22:12:17.939Z,3.13
2022-08-20T22:14:45.507Z,1.77
2022-08-20T22:17:14.119Z,2.20
2022-08-20T22:19:43.341Z,4.13
2022-08-20T22:22:13.024Z,2.10
2022-08-20T22:24:40.734Z,3.83
2022-08-20T22:27:08.667Z,3.00
2022-08-20T22:29:36.209Z,2.60
2022-08-20T22:32:04.163Z,4.73
2022-08-20T22:34:33.616Z,4.50
2022-08-20T22:37:03.776Z,3.63
2022-08-20T22:39:31.361Z,3.23
2022-08-20T22:41:59.148Z,2.43
2022-08-20T22:44:26.656Z,2.40
2022-08-20T22:46:57.897Z,2.80
2022-08-20T22:49:31.541Z,1.70
2022-08-20T22:51:59.595Z,2.73
2022-08-20T22:54:29.868Z,2.60
2022-08-20T22:56:57.408Z,4.83
2022-08-20T22:59:25.132Z,2.20
2022-08-20T23:01:53.346Z,6.80
2022-08-20T23:04:25.921Z,2.90
2022-08-20T23:06:54.270Z,4.87
2022-08-20T23:09:22.094Z,2.30
2022-08-20T23:11:51.455Z,2.17
2022-08-20T23:14:19.048Z,2.47
2022-08-20T23:16:50.016Z,3.07
2022-08-20T23:19:21.551Z,2.90
2022-08-20T23:21:49.130Z,4.77
2022-08-20T23:24:16.642Z,2.23
2022-08-20T23:26:51.301Z,1.90
2022-08-20T23:29:25.495Z,2.60
2022-08-20T23:31:54.429Z,2.50
2022-08-20T23:34:22.037Z,2.23
2022-08-20T23:36:50.249Z,3.20
2022-08-20T23:39:17.743Z,6.23
2022-08-20T23:41:47.952Z,6.70
2022-08-20T23:44:25.840Z,5.30
2022-08-20T23:46:57.575Z,3.00
2022-08-20T23:49:25.304Z,2.77
2022-08-20T23:51:52.871Z,3.40
2022-08-20T23:54:20.364Z,3.20
2022-08-20T23:56:47.896Z,3.30
2022-08-20T23:59:15.433Z,4.33
